Time;durP1;ratioP1;P1;durP2;ratioP2;P2;SDS_P1;SDS_P2;PMS_P1;PMS_P2;Temp;Humidity;BMP_temperature;BMP_pressure;BME280_temperature;BME280_humidity;BME280_pressure;Samples;Min_cycle;Max_cycle;Signal;HPM_P1;HPM_P2
2021/03/06 00:01:27;;;;;;;6.33;5.50;;;-0.80;99.90;;;;;;5080001;28;20235;-77
2021/03/06 00:03:53;;;;;;;5.47;4.97;;;-0.80;99.90;;;;;;5088139;28;20238;-75
2021/03/06 00:06:18;;;;;;;6.03;5.40;;;-0.80;99.90;;;;;;5085957;28;20259;-77
2021/03/06 00:08:44;;;;;;;6.30;5.70;;;-0.80;99.90;;;;;;5064087;28;20296;-77
2021/03/06 00:11:09;;;;;;;7.57;5.10;;;-0.80;99.90;;;;;;5088999;28;20187;-78
2021/03/06 00:13:36;;;;;;;5.53;5.03;;;-0.80;99.90;;;;;;5063110;28;20174;-77
2021/03/06 00:16:02;;;;;;;5.60;4.53;;;-0.80;99.90;;;;;;5063928;28;20177;-74
2021/03/06 00:18:28;;;;;;;5.60;4.87;;;-0.80;99.90;;;;;;5080602;28;20427;-76
2021/03/06 00:20:53;;;;;;;5.80;5.30;;;-0.90;99.90;;;;;;5081029;28;20494;-77
2021/03/06 00:23:19;;;;;;;7.20;5.07;;;-0.90;99.90;;;;;;5086825;28;20747;-77
2021/03/06 00:25:44;;;;;;;6.13;4.80;;;-0.90;99.90;;;;;;5084217;28;20659;-77
2021/03/06 00:28:10;;;;;;;5.20;4.37;;;-0.90;99.90;;;;;;5087348;28;20301;-77
2021/03/06 00:30:36;;;;;;;7.07;5.03;;;-1.00;99.90;;;;;;5088846;28;20173;-77
2021/03/06 00:33:03;;;;;;;5.13;4.63;;;-1.00;99.90;;;;;;5088664;28;20192;-77
2021/03/06 00:35:29;;;;;;;5.77;4.80;;;-1.10;99.90;;;;;;5070562;28;20181;-77
2021/03/06 00:37:54;;;;;;;7.00;5.90;;;-1.00;99.90;;;;;;5087835;28;20465;-77
2021/03/06 00:40:20;;;;;;;6.40;5.80;;;-1.00;99.90;;;;;;5086691;28;20430;-77
2021/03/06 00:42:45;;;;;;;5.83;5.30;;;-1.00;99.90;;;;;;5070412;28;20468;-77
2021/03/06 00:45:11;;;;;;;6.33;5.70;;;-1.10;99.90;;;;;;5068789;28;20289;-77
2021/03/06 00:47:37;;;;;;;6.60;5.60;;;-1.10;99.90;;;;;;5088099;28;20197;-77
2021/03/06 00:50:15;;;;;;;6.37;5.77;;;-1.10;99.90;;;;;;5069843;28;20956;-77
2021/03/06 00:52:41;;;;;;;7.93;6.77;;;-1.10;99.90;;;;;;5088462;28;20541;-77
2021/03/06 00:55:07;;;;;;;8.53;6.87;;;-1.10;99.90;;;;;;5088220;28;20419;-77
2021/03/06 00:57:33;;;;;;;7.87;7.00;;;-1.10;99.90;;;;;;5085622;28;20212;-77
2021/03/06 00:59:58;;;;;;;8.57;6.97;;;-1.10;99.90;;;;;;5088081;28;20419;-77
2021/03/06 01:02:24;;;;;;;7.20;6.50;;;-1.00;99.90;;;;;;5086150;28;20173;-77
2021/03/06 01:04:49;;;;;;;8.03;7.20;;;-1.10;99.90;;;;;;5087974;28;20609;-77
2021/03/06 01:07:15;;;;;;;7.97;7.17;;;-1.10;99.90;;;;;;5065194;28;20202;-76
2021/03/06 01:09:40;;;;;;;7.50;6.13;;;-1.10;99.90;;;;;;5067500;28;20209;-77
2021/03/06 01:12:06;;;;;;;7.53;6.83;;;-1.10;99.90;;;;;;5087981;28;20231;-78
2021/03/06 01:14:32;;;;;;;7.93;7.13;;;-1.10;99.90;;;;;;5085280;28;20196;-76
2021/03/06 01:16:57;;;;;;;10.30;7.70;;;-1.00;99.90;;;;;;5087662;28;20268;-77
2021/03/06 01:19:23;;;;;;;9.87;8.93;;;-1.00;99.90;;;;;;5086537;28;20221;-76
2021/03/06 01:21:49;;;;;;;8.70;7.80;;;-1.10;99.90;;;;;;5060079;28;20180;-77
2021/03/06 01:24:14;;;;;;;7.80;6.90;;;-1.10;99.90;;;;;;5086954;28;20447;-77
2021/03/06 01:26:40;;;;;;;10.43;8.17;;;-1.20;99.90;;;;;;5069142;28;20551;-78
2021/03/06 01:29:06;;;;;;;8.57;7.70;;;-1.20;99.90;;;;;;5086024;28;20944;-77
2021/03/06 01:31:31;;;;;;;8.50;6.33;;;-1.30;99.90;;;;;;5069287;28;20506;-77
2021/03/06 01:33:57;;;;;;;8.20;7.40;;;-1.40;99.90;;;;;;5068738;28;20177;-78
2021/03/06 01:36:23;;;;;;;9.50;7.73;;;-1.40;99.90;;;;;;5087074;28;20297;-77
2021/03/06 01:38:48;;;;;;;8.27;6.90;;;-1.40;99.90;;;;;;5067004;28;20208;-77
2021/03/06 01:41:14;;;;;;;6.93;6.20;;;-1.30;99.90;;;;;;5086714;28;20203;-76
2021/03/06 01:43:39;;;;;;;9.73;7.67;;;-1.40;99.90;;;;;;5087583;28;20193;-76
2021/03/06 01:46:05;;;;;;;6.73;6.13;;;-1.30;99.90;;;;;;5085837;28;20289;-75
2021/03/06 01:48:30;;;;;;;7.43;6.73;;;-1.30;99.90;;;;;;5087312;28;20670;-76
2021/03/06 01:50:56;;;;;;;11.53;6.57;;;-1.30;99.90;;;;;;5068332;28;20653;-76
2021/03/06 01:53:23;;;;;;;8.90;7.17;;;-1.20;99.90;;;;;;5086937;28;20181;-77
2021/03/06 01:55:49;;;;;;;7.50;6.80;;;-1.20;99.90;;;;;;5086007;28;20266;-78
2021/03/06 01:58:16;;;;;;;7.47;6.70;;;-1.10;99.90;;;;;;5068052;28;20454;-77
2021/03/06 02:00:42;;;;;;;7.73;6.93;;;-1.20;99.90;;;;;;5068628;28;20481;-78
2021/03/06 02:03:08;;;;;;;7.70;6.87;;;-1.20;99.90;;;;;;5085526;28;20438;-77
2021/03/06 02:05:34;;;;;;;7.53;6.83;;;-1.20;99.90;;;;;;5068471;28;20466;-77
2021/03/06 02:08:01;;;;;;;7.50;6.67;;;-1.20;99.90;;;;;;5080085;28;20443;-77
2021/03/06 02:10:53;;;;;;;9.83;7.10;;;-1.20;99.90;;;;;;5081810;28;20249;-78
2021/03/06 02:13:24;;;;;;;8.40;7.13;;;-1.30;99.90;;;;;;5072598;28;20498;-77
2021/03/06 02:16:29;;;;;;;7.57;6.83;;;-1.30;99.90;;;;;;5086742;28;20774;-78
2021/03/06 02:19:18;;;;;;;8.17;7.33;;;-1.40;99.90;;;;;;5063097;28;20526;-78
2021/03/06 02:22:11;;;;;;;6.83;6.23;;;-1.50;99.90;;;;;;5059436;28;21274;-78
2021/03/06 02:24:58;;;;;;;8.23;7.07;;;-1.50;99.90;;;;;;5076028;28;21007;-77
2021/03/06 02:27:38;;;;;;;7.50;6.20;;;-1.60;99.90;;;;;;5084290;28;20535;-77
2021/03/06 02:30:07;;;;;;;7.30;6.57;;;-1.60;99.90;;;;;;5086888;28;20410;-77
2021/03/06 02:32:43;;;;;;;7.20;6.50;;;-1.60;99.90;;;;;;5086094;28;20411;-77
2021/03/06 02:35:13;;;;;;;6.77;6.13;;;-1.60;99.90;;;;;;5086857;28;20435;-77
2021/03/06 02:37:45;;;;;;;7.00;5.97;;;-1.50;99.90;;;;;;5068223;28;20504;-77
2021/03/06 02:40:12;;;;;;;7.37;6.10;;;-1.50;99.90;;;;;;5058473;28;20461;-77
2021/03/06 02:42:39;;;;;;;7.70;5.50;;;-1.40;99.90;;;;;;5094796;28;20427;-76
2021/03/06 02:45:06;;;;;;;5.73;4.83;;;-1.30;99.90;;;;;;5082794;28;20540;-77
2021/03/06 02:47:32;;;;;;;6.30;5.80;;;-1.30;99.90;;;;;;5086026;28;20431;-78
2021/03/06 02:49:59;;;;;;;7.27;5.70;;;-1.40;99.90;;;;;;5086042;28;20407;-77
2021/03/06 02:52:25;;;;;;;6.47;5.97;;;-1.50;99.90;;;;;;5086396;28;20335;-77
2021/03/06 02:54:51;;;;;;;5.67;4.80;;;-1.50;99.90;;;;;;5086438;28;20510;-78
2021/03/06 02:57:28;;;;;;;5.07;4.67;;;-1.40;99.90;;;;;;5065554;28;20619;-77
2021/03/06 03:00:06;;;;;;;6.67;5.73;;;-1.40;99.90;;;;;;5082776;28;20407;-77
2021/03/06 03:03:00;;;;;;;5.30;4.80;;;-1.50;99.90;;;;;;5084793;28;20411;-77
2021/03/06 03:05:39;;;;;;;5.33;4.90;;;-1.60;99.90;;;;;;5072362;28;20978;-76
2021/03/06 03:08:10;;;;;;;5.93;4.77;;;-1.60;99.90;;;;;;5079131;28;20509;-77
2021/03/06 03:10:39;;;;;;;8.13;5.20;;;-1.60;99.90;;;;;;5086163;28;20463;-76
2021/03/06 03:13:20;;;;;;;6.17;5.37;;;-1.70;99.90;;;;;;5084184;28;20412;-77
2021/03/06 03:15:50;;;;;;;5.20;4.60;;;-1.70;99.90;;;;;;5085977;28;20408;-77
2021/03/06 03:18:23;;;;;;;4.67;4.27;;;-1.70;99.90;;;;;;5084617;28;20878;-77
2021/03/06 03:20:55;;;;;;;5.90;5.30;;;-1.80;99.90;;;;;;5078849;28;20423;-77
2021/03/06 03:23:43;;;;;;;5.80;5.20;;;-1.80;99.90;;;;;;5080154;28;20447;-77
2021/03/06 03:26:12;;;;;;;6.20;5.37;;;-1.60;99.90;;;;;;5085717;28;20454;-77
2021/03/06 03:28:41;;;;;;;6.13;5.27;;;-1.60;99.90;;;;;;5084623;28;20510;-77
2021/03/06 03:31:09;;;;;;;5.13;4.50;;;-1.60;99.90;;;;;;5086263;28;20877;-77
2021/03/06 03:33:36;;;;;;;5.57;4.20;;;-1.60;99.90;;;;;;5085110;28;20778;-77
2021/03/06 03:36:03;;;;;;;7.33;4.23;;;-1.70;99.90;;;;;;5067847;28;20859;-74
2021/03/06 03:38:30;;;;;;;6.73;5.40;;;-1.70;99.90;;;;;;5068249;28;21005;-75
2021/03/06 03:40:55;;;;;;;5.50;4.40;;;-1.70;99.90;;;;;;5069263;28;20526;-76
2021/03/06 03:43:23;;;;;;;5.80;5.20;;;-1.80;99.90;;;;;;5089539;28;21140;-76
2021/03/06 03:45:49;;;;;;;6.17;5.67;;;-1.80;99.90;;;;;;5070131;28;20205;-76
2021/03/06 03:48:16;;;;;;;5.57;5.07;;;-1.90;99.90;;;;;;5089409;28;20422;-75
2021/03/06 03:50:42;;;;;;;6.90;6.30;;;-1.90;99.90;;;;;;5070615;28;20454;-76
2021/03/06 03:53:11;;;;;;;5.77;5.30;;;-1.90;99.90;;;;;;5089476;28;20466;-76
2021/03/06 03:55:37;;;;;;;6.20;5.57;;;-2.00;99.90;;;;;;5089271;28;20179;-77
2021/03/06 03:58:02;;;;;;;5.57;5.07;;;-1.90;99.90;;;;;;5068381;28;20503;-77
2021/03/06 04:00:28;;;;;;;6.47;5.53;;;-1.90;99.90;;;;;;5089657;28;20192;-77
2021/03/06 04:02:54;;;;;;;5.53;5.10;;;-2.10;99.90;;;;;;5087373;28;20176;-76
2021/03/06 04:05:20;;;;;;;6.10;5.60;;;-2.00;99.90;;;;;;5088963;28;20193;-77
2021/03/06 04:07:51;;;;;;;5.50;5.00;;;-2.00;99.90;;;;;;5064168;28;20432;-77
2021/03/06 04:10:19;;;;;;;5.77;5.30;;;-2.00;99.90;;;;;;5070857;28;20260;-77
2021/03/06 04:12:45;;;;;;;6.27;5.67;;;-2.00;99.90;;;;;;5088241;28;20411;-76
2021/03/06 04:15:12;;;;;;;5.70;5.10;;;-2.00;99.90;;;;;;5087926;28;20943;-77
2021/03/06 04:17:38;;;;;;;6.67;5.50;;;-2.10;99.90;;;;;;5088847;28;20477;-76
2021/03/06 04:20:06;;;;;;;5.97;5.27;;;-2.00;99.90;;;;;;5067930;28;20978;-76
2021/03/06 04:22:31;;;;;;;6.37;5.73;;;-1.80;99.90;;;;;;5062053;28;20514;-76
2021/03/06 04:24:57;;;;;;;7.20;5.67;;;-1.80;99.90;;;;;;5088845;28;20899;-77
2021/03/06 04:27:23;;;;;;;5.37;4.97;;;-1.90;99.90;;;;;;5087163;28;20266;-76
2021/03/06 04:29:48;;;;;;;7.13;5.77;;;-1.80;99.90;;;;;;5089061;28;20216;-77
2021/03/06 04:32:14;;;;;;;5.70;5.20;;;-1.80;99.90;;;;;;5088019;28;20209;-77
2021/03/06 04:34:40;;;;;;;5.33;4.83;;;-1.80;99.90;;;;;;5088966;28;20276;-78
2021/03/06 04:37:05;;;;;;;6.70;5.23;;;-1.80;99.90;;;;;;5088232;28;20231;-75
2021/03/06 04:39:31;;;;;;;6.10;4.90;;;-1.90;99.90;;;;;;5068470;28;20423;-77
2021/03/06 04:41:56;;;;;;;6.10;5.03;;;-1.90;99.90;;;;;;5088372;28;20189;-76
2021/03/06 04:44:22;;;;;;;5.77;4.80;;;-1.90;99.90;;;;;;5087258;28;20233;-76
2021/03/06 04:46:48;;;;;;;5.90;5.30;;;-1.80;99.90;;;;;;5070188;28;20181;-76
2021/03/06 04:49:13;;;;;;;6.07;5.27;;;-2.00;99.90;;;;;;5087677;28;20669;-77
2021/03/06 04:51:39;;;;;;;5.73;5.13;;;-1.90;99.90;;;;;;5087936;28;20184;-77
2021/03/06 04:54:04;;;;;;;6.57;5.50;;;-2.10;99.90;;;;;;5087085;28;20192;-77
2021/03/06 04:56:30;;;;;;;8.27;5.80;;;-2.10;99.90;;;;;;5078814;28;20206;-77
2021/03/06 04:58:55;;;;;;;5.17;4.70;;;-2.00;99.90;;;;;;5088277;28;20201;-76
2021/03/06 05:01:21;;;;;;;6.90;6.30;;;-2.10;99.90;;;;;;5086493;28;20246;-77
2021/03/06 05:03:48;;;;;;;7.97;5.87;;;-2.10;99.90;;;;;;5069799;28;20272;-77
2021/03/06 05:06:14;;;;;;;6.70;6.07;;;-2.10;99.90;;;;;;5086948;28;20228;-76
2021/03/06 05:08:40;;;;;;;5.50;5.00;;;-2.20;99.90;;;;;;5063766;28;20439;-77
2021/03/06 05:11:06;;;;;;;7.70;7.00;;;-2.30;99.90;;;;;;5087899;28;20563;-76
2021/03/06 05:13:32;;;;;;;7.90;6.50;;;-2.20;99.90;;;;;;5067881;28;20254;-77
2021/03/06 05:15:58;;;;;;;6.37;5.77;;;-2.30;99.90;;;;;;5087721;28;20553;-75
2021/03/06 05:18:23;;;;;;;6.30;5.80;;;-2.20;99.90;;;;;;5086285;28;20299;-78
2021/03/06 05:20:50;;;;;;;7.50;6.00;;;-2.20;99.90;;;;;;5080148;28;20268;-77
2021/03/06 05:23:16;;;;;;;9.20;6.87;;;-2.10;99.90;;;;;;5066819;28;20201;-77
2021/03/06 05:25:41;;;;;;;9.37;6.50;;;-2.10;99.90;;;;;;5087745;28;20471;-77
2021/03/06 05:28:07;;;;;;;6.90;6.17;;;-2.10;99.90;;;;;;5085533;28;20445;-77
2021/03/06 05:30:32;;;;;;;8.20;7.40;;;-2.00;99.90;;;;;;5069237;28;20184;-78
2021/03/06 05:32:58;;;;;;;9.27;7.37;;;-2.10;99.90;;;;;;5071616;28;20181;-77
2021/03/06 05:35:24;;;;;;;7.90;6.60;;;-2.10;99.90;;;;;;5092469;28;20204;-77
2021/03/06 05:37:49;;;;;;;7.03;6.43;;;-2.20;99.90;;;;;;5074231;28;20215;-76
2021/03/06 05:40:15;;;;;;;11.40;6.97;;;-2.30;99.90;;;;;;5091701;28;20185;-77
2021/03/06 05:42:41;;;;;;;6.70;6.10;;;-2.30;99.90;;;;;;5093526;28;20208;-77
2021/03/06 05:45:10;;;;;;;7.70;7.00;;;-2.40;99.90;;;;;;5087738;28;20455;-76
2021/03/06 05:47:36;;;;;;;8.63;7.00;;;-2.40;99.90;;;;;;5087614;28;20688;-77
2021/03/06 05:50:04;;;;;;;7.80;6.30;;;-2.40;99.90;;;;;;5088233;28;20958;-76
2021/03/06 05:52:31;;;;;;;9.77;7.47;;;-2.50;99.90;;;;;;5087612;28;20437;-76
2021/03/06 05:54:58;;;;;;;8.87;7.57;;;-2.40;99.90;;;;;;5087307;28;20415;-77
2021/03/06 05:57:24;;;;;;;7.73;6.93;;;-2.40;99.90;;;;;;5066344;28;20470;-77
2021/03/06 05:59:49;;;;;;;8.33;7.30;;;-2.30;99.90;;;;;;5068810;28;20500;-76
2021/03/06 06:02:16;;;;;;;8.77;6.77;;;-2.40;99.90;;;;;;5066779;28;20181;-76
2021/03/06 06:04:43;;;;;;;8.57;6.73;;;-2.40;99.90;;;;;;5086887;28;20204;-77
2021/03/06 06:07:09;;;;;;;8.40;7.50;;;-2.40;99.90;;;;;;5083134;28;20455;-77
2021/03/06 06:09:35;;;;;;;9.43;7.87;;;-2.40;99.90;;;;;;5083579;28;20989;-77
2021/03/06 06:12:05;;;;;;;8.80;7.63;;;-2.50;99.90;;;;;;5086718;28;20423;-77
2021/03/06 06:14:31;;;;;;;7.90;6.93;;;-2.40;99.90;;;;;;5084866;28;20177;-77
2021/03/06 06:16:57;;;;;;;8.20;7.30;;;-2.50;99.90;;;;;;5068295;28;20414;-77
2021/03/06 06:19:23;;;;;;;8.47;7.50;;;-2.50;99.90;;;;;;5085331;28;20224;-77
2021/03/06 06:21:49;;;;;;;8.40;7.50;;;-2.50;99.90;;;;;;5077099;28;20444;-78
2021/03/06 06:24:22;;;;;;;8.47;7.57;;;-2.50;99.90;;;;;;5086161;28;20200;-77
2021/03/06 06:27:00;;;;;;;7.83;6.93;;;-2.50;99.90;;;;;;5085861;28;20426;-77
2021/03/06 06:29:45;;;;;;;8.53;7.60;;;-2.40;99.90;;;;;;5075542;28;20923;-77
2021/03/06 06:32:18;;;;;;;8.50;7.40;;;-2.30;99.90;;;;;;5085706;28;20963;-77
2021/03/06 06:35:00;;;;;;;7.73;6.97;;;-2.40;99.90;;;;;;5068104;28;20407;-77
2021/03/06 06:37:26;;;;;;;8.17;7.17;;;-2.40;99.90;;;;;;5084694;28;20429;-77
2021/03/06 06:39:52;;;;;;;7.60;6.90;;;-2.30;99.90;;;;;;5084658;28;20485;-77
2021/03/06 06:42:18;;;;;;;12.10;7.60;;;-2.30;99.90;;;;;;5086303;28;20486;-77
2021/03/06 06:44:56;;;;;;;9.03;7.57;;;-2.30;99.90;;;;;;5067230;28;20201;-77
2021/03/06 06:47:23;;;;;;;8.73;7.47;;;-2.10;99.90;;;;;;5082283;28;20415;-77
2021/03/06 06:49:53;;;;;;;8.00;7.30;;;-2.10;99.90;;;;;;5067846;28;20411;-77
2021/03/06 06:52:23;;;;;;;8.80;7.57;;;-2.00;99.90;;;;;;5080884;28;20435;-78
2021/03/06 06:54:54;;;;;;;9.77;7.10;;;-2.00;99.90;;;;;;5086362;28;20411;-77
2021/03/06 06:57:20;;;;;;;7.97;6.03;;;-1.90;99.90;;;;;;5080077;28;20415;-77
2021/03/06 06:59:56;;;;;;;8.03;7.27;;;-1.90;99.90;;;;;;5081601;28;20484;-77
2021/03/06 07:02:22;;;;;;;10.93;6.90;;;-1.80;99.90;;;;;;5079105;28;20419;-77
2021/03/06 07:04:51;;;;;;;8.83;7.20;;;-1.70;99.90;;;;;;5086523;28;20467;-77
2021/03/06 07:07:18;;;;;;;7.97;6.37;;;-1.60;99.90;;;;;;5063358;28;20420;-76
2021/03/06 07:10:09;;;;;;;7.10;6.37;;;-1.70;99.90;;;;;;5084449;28;20419;-77
2021/03/06 07:12:44;;;;;;;10.40;7.00;;;-1.60;99.90;;;;;;5054023;28;20419;-77
2021/03/06 07:15:18;;;;;;;7.93;7.10;;;-1.40;99.90;;;;;;5088633;28;20859;-77
2021/03/06 07:17:46;;;;;;;7.83;6.53;;;-1.50;99.90;;;;;;5089646;28;20926;-77
2021/03/06 07:20:33;;;;;;;7.30;6.60;;;-1.40;99.90;;;;;;5086587;28;20415;-77
2021/03/06 07:23:13;;;;;;;7.03;6.43;;;-1.30;99.90;;;;;;5067273;28;20796;-78
2021/03/06 07:25:39;;;;;;;7.73;6.93;;;-1.20;99.90;;;;;;5089658;28;20458;-77
2021/03/06 07:28:05;;;;;;;6.90;6.30;;;-1.00;99.90;;;;;;5079880;28;20444;-77
2021/03/06 07:30:31;;;;;;;7.00;6.30;;;-1.00;99.90;;;;;;5085776;28;20407;-77
2021/03/06 07:33:00;;;;;;;8.37;7.30;;;-1.00;99.90;;;;;;5089136;28;20411;-76
2021/03/06 07:35:25;;;;;;;7.50;6.80;;;-1.00;99.90;;;;;;5069765;28;20639;-77
2021/03/06 07:37:58;;;;;;;5.90;5.30;;;-0.90;99.90;;;;;;5078004;28;20539;-77
2021/03/06 07:40:29;;;;;;;9.47;7.13;;;-0.70;99.90;;;;;;5084326;28;20235;-77
2021/03/06 07:42:58;;;;;;;8.80;7.03;;;-0.70;99.90;;;;;;5089786;28;20475;-77
2021/03/06 07:45:27;;;;;;;7.63;6.83;;;-0.60;99.90;;;;;;5089837;28;20801;-79
2021/03/06 07:48:07;;;;;;;7.30;5.63;;;-0.50;99.90;;;;;;5085729;28;20431;-77
2021/03/06 07:50:35;;;;;;;9.90;8.37;;;-0.30;99.90;;;;;;5084016;28;20407;-77
2021/03/06 07:53:02;;;;;;;7.70;6.10;;;-0.20;99.90;;;;;;5085853;28;20504;-77
2021/03/06 07:55:29;;;;;;;7.13;6.37;;;-0.20;99.90;;;;;;5090027;28;20423;-78
2021/03/06 07:58:04;;;;;;;6.30;5.70;;;-0.10;99.90;;;;;;5087242;28;20866;-78
2021/03/06 08:00:47;;;;;;;9.53;5.83;;;0.00;99.90;;;;;;5089630;28;20994;-78
2021/03/06 08:03:39;;;;;;;7.90;6.20;;;0.10;99.90;;;;;;5088007;28;20479;-76
2021/03/06 08:06:27;;;;;;;6.43;5.83;;;0.20;99.90;;;;;;5084690;28;20467;-78
2021/03/06 08:09:12;;;;;;;6.00;5.50;;;0.50;99.90;;;;;;5065228;28;20778;-78
2021/03/06 08:11:40;;;;;;;7.30;5.80;;;0.60;99.90;;;;;;5088805;28;20493;-76
2021/03/06 08:14:30;;;;;;;8.37;5.73;;;0.70;99.90;;;;;;5087068;28;20958;-77
2021/03/06 08:16:55;;;;;;;7.10;6.30;;;0.90;99.90;;;;;;5085180;28;20407;-78
2021/03/06 08:19:23;;;;;;;6.73;5.87;;;1.00;99.90;;;;;;5087644;28;20885;-77
2021/03/06 08:21:50;;;;;;;7.27;5.70;;;1.10;99.90;;;;;;5079249;28;20191;-77
2021/03/06 08:24:15;;;;;;;5.93;5.33;;;1.30;99.90;;;;;;5088320;28;20438;-78
2021/03/06 08:26:43;;;;;;;6.10;5.43;;;1.40;99.90;;;;;;5087459;28;20470;-77
2021/03/06 08:29:24;;;;;;;6.70;5.50;;;1.40;99.90;;;;;;5087370;28;20264;-77
2021/03/06 08:32:01;;;;;;;7.30;5.20;;;1.60;99.90;;;;;;5064374;28;20427;-77
2021/03/06 08:34:47;;;;;;;5.90;5.23;;;1.80;99.90;;;;;;5059726;28;20415;-77
2021/03/06 08:37:12;;;;;;;5.23;4.73;;;1.90;99.90;;;;;;5087936;28;20467;-77
2021/03/06 08:39:39;;;;;;;6.47;4.33;;;2.00;99.90;;;;;;5085957;28;20404;-76
2021/03/06 08:42:05;;;;;;;5.53;4.53;;;2.00;99.90;;;;;;5087795;28;20178;-76
2021/03/06 08:44:30;;;;;;;5.70;5.20;;;2.10;99.90;;;;;;5086978;28;20437;-76
2021/03/06 08:46:57;;;;;;;4.90;4.50;;;2.30;99.90;;;;;;5087696;28;20184;-76
2021/03/06 08:49:23;;;;;;;6.37;5.70;;;2.40;99.90;;;;;;5087168;28;20673;-77
2021/03/06 08:51:51;;;;;;;6.40;5.23;;;2.50;99.90;;;;;;5087922;28;20426;-77
2021/03/06 08:54:16;;;;;;;5.80;4.60;;;2.60;99.90;;;;;;5087543;28;20854;-77
2021/03/06 08:56:42;;;;;;;5.00;4.50;;;2.80;99.90;;;;;;5067346;28;20427;-77
2021/03/06 08:59:08;;;;;;;5.83;5.07;;;2.90;99.90;;;;;;5088021;28;20696;-77
2021/03/06 09:01:34;;;;;;;5.80;4.83;;;2.90;99.90;;;;;;5067744;28;20181;-77
2021/03/06 09:04:00;;;;;;;7.57;4.77;;;2.90;99.90;;;;;;5069540;28;20191;-76
2021/03/06 09:06:39;;;;;;;5.63;5.13;;;2.90;99.90;;;;;;5087110;28;20462;-76
2021/03/06 09:09:09;;;;;;;8.33;5.97;;;3.10;99.90;;;;;;5063512;28;20197;-76
2021/03/06 09:12:02;;;;;;;6.13;5.00;;;3.10;99.90;;;;;;5087625;28;20832;-76
2021/03/06 09:14:28;;;;;;;6.50;5.40;;;3.20;99.90;;;;;;5079702;28;20916;-77
2021/03/06 09:16:54;;;;;;;5.90;5.40;;;3.20;99.90;;;;;;5069283;28;20425;-76
2021/03/06 09:19:24;;;;;;;6.10;4.73;;;3.30;99.90;;;;;;5086470;28;20918;-76
2021/03/06 09:21:58;;;;;;;5.60;5.20;;;3.40;99.90;;;;;;5059766;28;20469;-76
2021/03/06 09:24:23;;;;;;;5.73;5.13;;;3.50;99.90;;;;;;5075205;28;21012;-76
2021/03/06 09:26:53;;;;;;;5.43;4.93;;;3.50;99.90;;;;;;5067951;28;20503;-76
2021/03/06 09:29:18;;;;;;;5.83;5.23;;;3.60;99.90;;;;;;5087558;28;20254;-76
2021/03/06 09:31:49;;;;;;;5.40;4.90;;;3.70;99.90;;;;;;5087188;28;20510;-76
2021/03/06 09:34:15;;;;;;;5.80;4.50;;;3.70;99.90;;;;;;5084310;28;20589;-76
2021/03/06 09:36:41;;;;;;;5.73;5.00;;;3.90;99.90;;;;;;5087271;28;20507;-76
2021/03/06 09:39:06;;;;;;;5.77;5.27;;;4.00;99.90;;;;;;5085282;28;20205;-75
2021/03/06 09:41:34;;;;;;;5.03;4.53;;;4.00;99.90;;;;;;5087511;28;20541;-76
2021/03/06 09:44:02;;;;;;;5.93;5.00;;;4.10;99.90;;;;;;5085606;28;20438;-75
2021/03/06 09:46:33;;;;;;;5.43;4.93;;;4.20;99.90;;;;;;5068526;28;20455;-76
2021/03/06 09:49:00;;;;;;;5.67;4.47;;;4.30;99.90;;;;;;5061882;28;20509;-75
2021/03/06 09:51:43;;;;;;;5.27;4.73;;;4.40;99.90;;;;;;5087092;28;20766;-75
2021/03/06 09:54:10;;;;;;;4.63;4.23;;;4.40;99.90;;;;;;5087096;28;20410;-76
2021/03/06 09:56:49;;;;;;;4.80;4.40;;;4.40;99.90;;;;;;5084897;28;20438;-75
2021/03/06 09:59:14;;;;;;;5.30;4.20;;;4.40;99.90;;;;;;5087053;28;20422;-76
2021/03/06 10:01:40;;;;;;;3.83;3.53;;;4.50;99.90;;;;;;5066748;28;20422;-76
2021/03/06 10:04:22;;;;;;;4.20;3.80;;;4.50;99.90;;;;;;5086746;28;20181;-75
2021/03/06 10:06:53;;;;;;;4.27;3.87;;;4.60;99.90;;;;;;5081930;28;20455;-75
2021/03/06 10:09:20;;;;;;;5.20;4.70;;;4.60;99.90;;;;;;5081256;28;20426;-76
2021/03/06 10:11:47;;;;;;;5.10;4.63;;;4.60;99.90;;;;;;5086634;28;20431;-76
2021/03/06 10:14:34;;;;;;;5.40;4.37;;;4.60;99.90;;;;;;5084510;28;20930;-76
2021/03/06 10:17:03;;;;;;;6.00;4.10;;;4.70;99.90;;;;;;5065255;28;20549;-76
2021/03/06 10:19:31;;;;;;;4.90;4.50;;;4.80;99.90;;;;;;5085578;28;20443;-75
2021/03/06 10:22:02;;;;;;;4.20;3.80;;;4.80;99.90;;;;;;5075944;28;20442;-75
2021/03/06 10:24:28;;;;;;;4.63;4.30;;;4.90;99.90;;;;;;5086621;28;20481;-76
2021/03/06 10:27:02;;;;;;;4.27;3.87;;;4.90;99.90;;;;;;5085080;28;20479;-75
2021/03/06 10:29:29;;;;;;;3.77;3.47;;;4.90;99.70;;;;;;5086326;28;20435;-75
2021/03/06 10:32:00;;;;;;;4.90;4.43;;;4.90;99.90;;;;;;5085862;28;20504;-74
2021/03/06 10:34:34;;;;;;;5.50;5.00;;;4.90;99.60;;;;;;5086820;28;20437;-75
2021/03/06 10:37:12;;;;;;;4.70;4.30;;;5.00;99.80;;;;;;5086227;28;20518;-76
2021/03/06 10:40:03;;;;;;;4.97;4.30;;;5.10;98.90;;;;;;5084492;28;20450;-76
2021/03/06 10:42:44;;;;;;;5.30;4.80;;;5.10;98.40;;;;;;5084129;28;20426;-76
2021/03/06 10:45:21;;;;;;;5.60;4.27;;;5.20;98.20;;;;;;5085159;28;20462;-77
2021/03/06 10:47:53;;;;;;;5.30;4.30;;;5.20;97.60;;;;;;5080579;28;20831;-75
2021/03/06 10:50:26;;;;;;;4.27;3.90;;;5.30;98.50;;;;;;5078457;28;20895;-76
2021/03/06 10:53:08;;;;;;;3.83;3.47;;;5.30;97.30;;;;;;5086136;28;20411;-77
2021/03/06 10:55:34;;;;;;;4.00;3.70;;;5.40;95.60;;;;;;5086190;28;20775;-75
2021/03/06 10:58:00;;;;;;;4.30;3.90;;;5.50;93.50;;;;;;5083635;28;20431;-76
2021/03/06 11:00:26;;;;;;;4.17;3.80;;;5.50;94.70;;;;;;5086185;28;20927;-77
2021/03/06 11:02:56;;;;;;;4.00;3.60;;;5.60;93.50;;;;;;5084608;28;20177;-76
2021/03/06 11:05:23;;;;;;;4.10;3.80;;;5.60;94.10;;;;;;5072080;28;20282;-76
2021/03/06 11:07:49;;;;;;;5.07;3.27;;;5.60;92.80;;;;;;5079420;28;20436;-76
2021/03/06 11:10:16;;;;;;;3.90;3.60;;;5.60;92.30;;;;;;5068063;28;20430;-77
2021/03/06 11:12:52;;;;;;;3.70;3.30;;;5.70;92.90;;;;;;5086216;28;20185;-77
2021/03/06 11:15:22;;;;;;;5.07;3.20;;;5.70;90.80;;;;;;5086292;28;20756;-77
2021/03/06 11:17:51;;;;;;;3.87;3.57;;;5.70;91.00;;;;;;5067484;28;20457;-77
2021/03/06 11:20:18;;;;;;;3.77;3.43;;;5.80;90.90;;;;;;5082797;28;20424;-76
2021/03/06 11:22:44;;;;;;;3.30;3.00;;;5.80;90.00;;;;;;5072876;28;20427;-76
2021/03/06 11:25:12;;;;;;;5.03;3.73;;;5.90;88.90;;;;;;5086264;28;20463;-76
2021/03/06 11:27:53;;;;;;;4.00;3.60;;;5.90;86.90;;;;;;5085053;28;20442;-76
2021/03/06 11:30:21;;;;;;;4.23;3.20;;;5.90;86.30;;;;;;5081333;28;20989;-75
2021/03/06 11:32:48;;;;;;;8.07;2.90;;;5.90;84.10;;;;;;5085481;28;20411;-75
2021/03/06 11:35:15;;;;;;;3.63;3.27;;;6.10;84.00;;;;;;5086581;28;20419;-75
2021/03/06 11:37:41;;;;;;;3.70;3.40;;;6.10;83.80;;;;;;5080576;28;20418;-78
2021/03/06 11:40:08;;;;;;;3.90;3.60;;;6.10;84.80;;;;;;5083617;28;20532;-76
2021/03/06 11:42:34;;;;;;;3.80;3.50;;;6.10;85.40;;;;;;5085707;28;20494;-75
2021/03/06 11:45:00;;;;;;;5.23;3.50;;;6.20;86.70;;;;;;5085934;28;20673;-74
2021/03/06 11:47:25;;;;;;;4.10;3.70;;;6.40;86.80;;;;;;5085961;28;20201;-75
2021/03/06 11:49:51;;;;;;;4.40;3.93;;;6.60;86.60;;;;;;5067492;28;20242;-75
2021/03/06 11:52:16;;;;;;;5.30;4.77;;;6.70;87.40;;;;;;5067111;28;20181;-76
2021/03/06 11:54:42;;;;;;;4.50;3.43;;;6.70;88.30;;;;;;5086152;28;20303;-75
2021/03/06 11:57:08;;;;;;;4.47;4.07;;;6.70;86.90;;;;;;5083479;28;20192;-74
2021/03/06 11:59:34;;;;;;;4.67;4.27;;;6.90;88.10;;;;;;5085733;28;20173;-76
2021/03/06 12:01:59;;;;;;;4.30;3.90;;;7.20;89.40;;;;;;5087575;28;20664;-74
2021/03/06 12:04:25;;;;;;;4.43;3.70;;;7.90;88.70;;;;;;5087229;28;20664;-76
2021/03/06 12:06:50;;;;;;;4.30;3.90;;;9.00;87.20;;;;;;5083984;28;20197;-75
2021/03/06 12:09:16;;;;;;;3.83;3.53;;;9.90;84.70;;;;;;5083328;28;20197;-75
2021/03/06 12:11:41;;;;;;;3.80;3.50;;;10.60;79.80;;;;;;5089331;28;20165;-76
2021/03/06 12:14:07;;;;;;;4.07;3.77;;;11.00;74.70;;;;;;5068858;28;20227;-75
2021/03/06 12:16:35;;;;;;;3.90;3.60;;;10.80;69.70;;;;;;5088977;28;20181;-76
2021/03/06 12:19:01;;;;;;;4.40;3.37;;;10.70;69.20;;;;;;5087561;28;20201;-75
2021/03/06 12:21:26;;;;;;;3.63;3.33;;;10.90;69.30;;;;;;5080699;28;20775;-76
2021/03/06 12:23:52;;;;;;;4.07;3.50;;;10.90;66.40;;;;;;5086627;28;20192;-77
2021/03/06 12:26:17;;;;;;;4.33;4.03;;;11.20;66.60;;;;;;5088514;28;20242;-77
2021/03/06 12:28:43;;;;;;;3.70;3.20;;;11.50;64.00;;;;;;5087707;28;20574;-76
2021/03/06 12:31:08;;;;;;;3.60;3.30;;;10.90;61.40;;;;;;5070466;28;20235;-76
2021/03/06 12:33:34;;;;;;;3.60;3.30;;;11.20;62.00;;;;;;5088446;28;20181;-76
2021/03/06 12:35:59;;;;;;;3.57;3.27;;;11.60;60.30;;;;;;5089982;28;20178;-76
2021/03/06 12:38:25;;;;;;;4.00;3.60;;;11.80;61.50;;;;;;5088981;28;20205;-76
2021/03/06 12:40:51;;;;;;;4.50;4.10;;;12.30;59.20;;;;;;5086777;28;20269;-77
2021/03/06 12:43:16;;;;;;;3.87;3.57;;;12.60;58.70;;;;;;5088689;28;20239;-76
2021/03/06 12:45:42;;;;;;;3.63;3.33;;;12.50;55.80;;;;;;5068980;28;20205;-76
2021/03/06 12:48:07;;;;;;;4.03;3.00;;;12.00;56.30;;;;;;5069845;28;20200;-78
2021/03/06 12:50:33;;;;;;;3.10;2.90;;;11.70;54.90;;;;;;5087874;28;20273;-75
2021/03/06 12:52:58;;;;;;;3.50;3.20;;;12.00;56.30;;;;;;5070161;28;20606;-77
2021/03/06 12:55:24;;;;;;;3.03;2.80;;;12.40;55.70;;;;;;5070416;28;20216;-77
2021/03/06 12:57:49;;;;;;;3.27;3.00;;;12.40;53.90;;;;;;5085979;28;20201;-77
2021/03/06 13:00:15;;;;;;;3.20;3.00;;;13.00;53.00;;;;;;5088807;28;20181;-76